Flight Track Log - Related Links

Times and Time Zones

All times are in EDT time to prevent confusion due to time zone crossing. See the TCF3559 flight status page for this flight to view local times or setup timezone preferences in your user account.

Time Position Orientation Groundspeed Altitude Reporting Facility
EDT Latitude Longitude Course Direction KTS MPH feet Rate Location/Type
Mon 11:14:47 PM 39.8833 -104.6167 85° East 140 161 6,400  Level Denver TRACON
Mon 11:15:47 PM 39.8833 -104.5333 90° East 208 239 7,600 1,700 Climbing Denver TRACON
Mon 11:16:47 PM 39.8833 -104.4500 90° East 273 314 9,800 1,800 Climbing Denver TRACON
Mon 11:17:00 PM 39.8667 -104.0045 90° East  Level FlightAware
Mon 11:17:07 PM 39.8742 -104.4136 108° East 272 313 10,000  Level Denver Center
Mon 11:18:00 PM 39.8667 -103.8387 90° East  Level FlightAware
Mon 11:18:08 PM 39.8739 -104.2997 90° East 313 360 11,300  Level Denver Center
Mon 11:19:00 PM 39.8872 -103.6764 85° East  Level FlightAware
Mon 11:19:10 PM 39.8733 -104.1781 90° East 338 389 13,500  Level Denver Center
Mon 11:20:00 PM 39.8982 -103.5111 85° East  Level FlightAware
Mon 11:20:11 PM 39.8717 -104.0417 91° East 351 404 16,200  Level Denver Center
Mon 11:21:13 PM 39.8711 -103.9039 90° East 380 437 17,900 1,756 Climbing Denver Center
Mon 11:22:14 PM 39.8811 -103.7569 85° East 408 470 19,800 1,902 Climbing Denver Center
Mon 11:23:16 PM 39.8981 -103.6072 82° East 414 476 21,800 1,790 Climbing Denver Center
Mon 11:24:18 PM 39.9167 -103.4461 81° East 442 509 23,500 1,512 Climbing Denver Center
Mon 11:25:19 PM 39.9325 -103.3086 81° East 454 522 24,900 1,415 Climbing Denver Center
Mon 11:26:21 PM 39.9542 -103.1092 82° East 473 544 26,400 1,463 Climbing Denver Center
Mon 11:27:22 PM 39.9758 -102.9017 82° East 490 564 27,900 1,268 Climbing Denver Center
Mon 11:28:24 PM 39.9975 -102.7178 81° East 508 585 29,000 677 Climbing Denver Center
Mon 11:29:26 PM 40.0144 -102.5456 83° East 522 601 29,300 488 Climbing Denver Center
Mon 11:30:27 PM 40.0381 -102.3267 82° East 545 627 30,000 878 Climbing Denver Center
Mon 11:31:29 PM 40.0569 -102.1378 82° East 548 631 31,100 976 Climbing Denver Center
Mon 11:32:30 PM 40.0789 -101.9189 82° East 546 628 32,000 732 Climbing Denver Center
Mon 11:33:32 PM 40.0981 -101.7306 82° East 548 631 32,600 488 Climbing Denver Center
Mon 11:34:33 PM 40.1192 -101.5089 83° East 551 634 33,000 195 Climbing Denver Center
Mon 11:35:35 PM 40.1375 -101.3167 83° East 558 642 33,000  Level Denver Center
Mon 11:36:36 PM 40.1556 -101.1222 83° East 565 650 33,000  Level Denver Center
Mon 11:37:38 PM 40.1761 -100.8983 83° East 561 646 33,000  Level Denver Center
Mon 11:38:39 PM 40.1933 -100.7047 83° East 563 648 33,000  Level Denver Center
Mon 11:39:41 PM 40.2269 -100.4825 79° East 562 647 33,000  Level Denver Center
Mon 11:40:42 PM 40.2647 -100.2950 75° East 560 644 33,000  Level Denver Center
Mon 11:41:44 PM 40.3089 -100.0761 75° East 560 644 33,000  Level Denver Center
Mon 11:42:45 PM 40.3464 -99.8872 75° East 562 647 33,000  Level Denver Center
Mon 11:43:46 PM 40.3856 -99.6889 75° East 564 649 33,000  Level Denver Center
Mon 11:44:48 PM 40.4250 -99.4914 75° East 561 646 33,000  Level Denver Center
Mon 11:45:49 PM 40.4622 -99.2944 76° East 559 643 33,000  Level Denver Center
Mon 11:46:51 PM 40.5006 -99.0992 75° East 556 640 33,000  Level Denver Center
Mon 11:47:55 PM 40.5444 -98.8669 76° East 553 636 33,000  Level Minneapolis Center
Mon 11:48:56 PM 40.5808 -98.6711 76° East 555 639 33,000  Level Minneapolis Center
Mon 11:49:57 PM 40.6172 -98.4739 76° East 557 641 33,000  Level Minneapolis Center
Mon 11:50:58 PM 40.6536 -98.2789 76° East 556 640 33,000  Level Minneapolis Center
Mon 11:52:11 PM 40.6889 -98.0825 77° East 555 639 33,000  Level Minneapolis Center
Mon 11:53:13 PM 40.7317 -97.8453 77° East 556 640 33,000  Level Minneapolis Center
Mon 11:54:14 PM 40.7736 -97.6094 77° East 555 639 33,000  Level Minneapolis Center
Mon 11:55:15 PM 40.8075 -97.4114 77° East 555 639 33,000  Level Minneapolis Center
Mon 11:56:15 PM 40.8422 -97.2122 77° East 554 638 33,000  Level Minneapolis Center
Mon 11:57:17 PM 40.8769 -97.0158 77° East 554 638 33,000  Level Minneapolis Center
Mon 11:58:17 PM 40.9117 -96.8189 77° East 552 635 33,000  Level Minneapolis Center
Mon 11:59:19 PM 40.9422 -96.6222 78° East 551 634 33,000  Level Minneapolis Center
Tue 12:00:20 AM 40.9675 -96.4250 80° East 549 632 33,000  Level Minneapolis Center
Tue 12:01:20 AM 40.9944 -96.2275 80° East 549 632 33,000  Level Minneapolis Center
Tue 12:02:21 AM 41.0197 -96.0317 80° East 547 629 33,000  Level Minneapolis Center
Tue 12:03:23 AM 41.0456 -95.8369 80° East 546 628 33,000  Level Minneapolis Center
Tue 12:04:23 AM 41.0706 -95.6433 80° East 542 624 33,000  Level Minneapolis Center
Tue 12:05:24 AM 41.1017 -95.4072 80° East 545 627 33,000  Level Minneapolis Center
Tue 12:06:25 AM 41.1258 -95.2106 81° East 543 625 33,000  Level Minneapolis Center
Tue 12:07:26 AM 41.1497 -95.0136 81° East 542 624 33,000  Level Minneapolis Center
Tue 12:08:27 AM 41.1742 -94.8172 81° East 541 623 33,000  Level Minneapolis Center
Tue 12:09:28 AM 41.1978 -94.6217 81° East 538 619 33,000  Level Minneapolis Center
Tue 12:10:29 AM 41.2211 -94.4286 81° East 534 615 33,000  Level Minneapolis Center
Tue 12:11:30 AM 41.2453 -94.2356 80° East 532 612 33,000  Level Minneapolis Center
Tue 12:12:31 AM 41.2644 -94.0411 82° East 533 613 33,000  Level Minneapolis Center
Tue 12:13:32 AM 41.2869 -93.8486 81° East 532 612 33,000  Level Minneapolis Center
Tue 12:14:33 AM 41.3092 -93.6581 81° East 529 609 33,000  Level Minneapolis Center
Tue 12:15:34 AM 41.3300 -93.4719 81° East 523 602 33,000  Level Minneapolis Center
Tue 12:16:34 AM 41.3503 -93.2903 81° East 507 583 33,000  Level Minneapolis Center
Tue 12:17:35 AM 41.3700 -93.1064 82° East 503 579 33,000  Level Minneapolis Center
Tue 12:18:36 AM 41.3933 -92.8831 82° East 508 585 33,000  Level Minneapolis Center
Tue 12:19:37 AM 41.4125 -92.6994 82° East 504 580 33,000  Level Minneapolis Center
Tue 12:20:38 AM 41.4314 -92.5167 82° East 502 578 33,000  Level Minneapolis Center
Tue 12:21:37 AM 41.4475 -92.3481 83° East 496 571 33,000  Level Chicago Center
Tue 12:22:37 AM 41.4661 -92.1664 82° East 499 574 33,000  Level Chicago Center
Tue 12:23:38 AM 41.4831 -91.9936 82° East 486 559 33,000  Level Chicago Center
Tue 12:24:38 AM 41.5006 -91.8156 82° East 488 562 33,000  Level Chicago Center
Tue 12:25:39 AM 41.5169 -91.6386 83° East 487 560 33,000  Level Chicago Center
Tue 12:26:40 AM 41.5575 -91.4322 75° East 487 560 33,000  Level Chicago Center
Tue 12:27:40 AM 41.5889 -91.2603 76° East 484 557 33,000  Level Chicago Center
Tue 12:28:41 AM 41.6053 -91.0842 83° East 482 555 33,000  Level Chicago Center
Tue 12:29:41 AM 41.6214 -90.9056 83° East 488 562 33,000  Level Chicago Center
Tue 12:30:42 AM 41.6369 -90.7289 83° East 485 558 33,000  Level Chicago Center
Tue 12:31:42 AM 41.6519 -90.5647 83° East 487 560 33,000  Level Chicago Center
Tue 12:32:43 AM 41.6678 -90.3844 83° East 487 560 33,000  Level Chicago Center
Tue 12:33:43 AM 41.6819 -90.2064 84° East 483 556 33,000  Level Chicago Center
Tue 12:34:44 AM 41.6961 -90.0283 84° East 481 554 33,000  Level Chicago Center
Tue 12:35:45 AM 41.7119 -89.8506 83° East 480 552 33,000  Level Chicago Center
Tue 12:36:45 AM 41.7261 -89.6706 84° East 482 555 33,000  Level Chicago Center
Tue 12:37:46 AM 41.7406 -89.4769 84° East 480 552 33,000  Level Chicago Center
Tue 12:38:46 AM 41.7553 -89.3000 84° East 479 551 33,000  Level Chicago Center
Tue 12:39:47 AM 41.7681 -89.1250 84° East 478 550 33,000  Level Chicago Center
Tue 12:40:47 AM 41.7811 -88.9489 84° East 479 551 33,000  Level Chicago Center
Tue 12:41:47 AM 41.7931 -88.7717 85° East 481 554 33,000  Level Chicago Center
Tue 12:42:48 AM 41.8053 -88.5950 85° East 477 549 33,000  Level Chicago Center
Tue 12:43:48 AM 41.8169 -88.4169 85° East 479 551 33,000  Level Chicago Center
Tue 12:44:49 AM 41.8300 -88.2394 84° East 478 550 33,000  Level Chicago Center
Tue 12:45:49 AM 41.8414 -88.0619 85° East 476 548 33,000  Level Chicago Center
Tue 12:46:50 AM 41.8531 -87.8853 85° East 474 545 33,000  Level Chicago Center
Tue 12:47:50 AM 41.8639 -87.7083 85° East 475 547 33,000  Level Chicago Center
Tue 12:48:50 AM 41.8742 -87.5314 85° East 476 548 33,000  Level Chicago Center
Tue 12:49:51 AM 41.8850 -87.3536 85° East 479 551 33,000  Level Chicago Center
Tue 12:50:51 AM 41.8947 -87.1769 86° East 477 549 33,000  Level Chicago Center
Tue 12:51:51 AM 41.9061 -86.9656 86° East 477 549 33,000  Level Chicago Center
Tue 12:52:52 AM 41.9158 -86.7872 86° East 482 555 33,000  Level Chicago Center
Tue 12:53:52 AM 41.9261 -86.6147 85° East 479 551 33,000  Level Chicago Center
Tue 12:54:53 AM 41.9356 -86.4386 86° East 477 549 33,000  Level Chicago Center
Tue 12:55:53 AM 41.9444 -86.2617 86° East 477 549 33,000  Level Chicago Center
Tue 12:56:53 AM 41.9528 -86.0839 86° East 476 548 33,000  Level Chicago Center
Tue 12:57:54 AM 41.9606 -85.9064 87° East 476 548 33,000  Level Chicago Center
Tue 12:58:54 AM 41.9689 -85.7267 86° East 478 550 33,000  Level Chicago Center
Tue 12:59:57 AM 41.9769 -85.5489 86° East 474 545 33,000  Level Chicago Center
Tue 01:00:58 AM 41.9847 -85.3692 87° East 476 548 33,000  Level Chicago Center
Tue 01:01:58 AM 41.9925 -85.1781 87° East 476 548 33,000  Level Chicago Center
Tue 01:02:59 AM 42.0000 -84.9978 87° East 483 556 33,000  Level Chicago Center
Tue 01:03:59 AM 42.0056 -84.8233 87° East 473 544 33,000  Level Chicago Center
Tue 01:05:00 AM 42.0101 -84.6460 88° East  Level FlightAware
Tue 01:12:00 AM 42.0333 -83.4245 90° East  Level FlightAware
Tue 01:13:00 AM 42.0236 -83.2505 94° East  Level FlightAware
Tue 01:14:00 AM 42.0032 -83.0793 109° East  Level FlightAware
Tue 01:15:00 AM 41.9825 -82.9073 97° East  Level FlightAware
Tue 01:16:00 AM 41.9669 -82.7341 97° East  Level FlightAware
Tue 01:17:00 AM 41.9510 -82.5610 97° East  Level FlightAware
Tue 01:18:00 AM 41.9006 -82.4016 118° Southeast  Level FlightAware
Tue 01:19:00 AM 41.8530 -82.2408 118° Southeast  Level FlightAware
Tue 01:20:00 AM 41.7604 -82.1292 154° Southeast  Level FlightAware
Tue 01:21:00 AM 41.6508 -82.0373 149° Southeast  Level FlightAware
Tue 01:22:00 AM 41.5368 -81.9554 156° South  Level FlightAware
Tue 01:23:00 AM 41.4277 -81.8639 159° South  Level FlightAware
Tue 01:24:00 AM 41.4094 -81.8547 159° South  Level Estimated
Tue 01:25:00 AM 41.4094 -81.8547 159° South  Level Estimated
Tue 01:26:00 AM 41.4094 -81.8547 159° South  Level Estimated
Tue 01:27:00 AM 41.4094 -81.8547 159° South  Level Estimated
Tue 01:28:00 AM 41.4094 -81.8547 159° South  Level Estimated
Tue 01:29:00 AM 41.4094 -81.8547 159° South  Level Estimated
Tue 01:30:00 AM 41.4094 -81.8547 159° South  Level Estimated
Tue 01:31:00 AM 41.4094 -81.8547 159° South  Level Estimated
Tue 01:32:00 AM 41.4094 -81.8547 159° South  Level Estimated

Login

Don't have an account? Register now (free) for customized features, flight alerts, and more!